createdAt,value
2022-10-18T00:00:18.011Z,16.67
2022-10-18T00:03:20.839Z,14.95
2022-10-18T00:06:23.396Z,39.10
2022-10-18T00:09:27.524Z,15.70
2022-10-18T00:12:29.922Z,17.25
2022-10-18T00:15:32.380Z,18.30
2022-10-18T00:18:34.762Z,17.35
2022-10-18T00:21:37.241Z,16.20
2022-10-18T00:24:39.687Z,17.60
2022-10-18T00:27:42.231Z,14.00
2022-10-18T00:30:44.634Z,14.55
2022-10-18T00:33:51.711Z,15.68
2022-10-18T00:36:55.094Z,16.27
2022-10-18T00:39:57.451Z,19.33
2022-10-18T00:42:59.877Z,19.20
2022-10-18T00:46:02.208Z,17.08
2022-10-18T00:49:17.184Z,14.10
2022-10-18T00:52:26.496Z,14.70
2022-10-18T00:55:31.678Z,15.87
2022-10-18T00:58:34.923Z,16.40
2022-10-18T01:01:37.579Z,17.58
2022-10-18T01:04:39.956Z,16.48
2022-10-18T01:07:48.506Z,16.77
2022-10-18T01:11:12.686Z,15.80
2022-10-18T01:14:34.288Z,17.33
2022-10-18T01:18:09.382Z,17.25
2022-10-18T01:21:47.258Z,18.80
2022-10-18T01:25:20.106Z,20.40
2022-10-18T01:28:44.093Z,18.03
2022-10-18T01:31:50.418Z,20.10
2022-10-18T01:34:58.101Z,17.35
2022-10-18T01:38:05.107Z,17.00
2022-10-18T01:41:13.226Z,17.57
2022-10-18T01:44:23.455Z,19.03
2022-10-18T01:47:28.187Z,16.73
2022-10-18T01:50:33.075Z,17.05
2022-10-18T01:53:36.189Z,15.48
2022-10-18T01:57:00.300Z,18.03
2022-10-18T02:00:05.413Z,18.37
2022-10-18T02:03:17.828Z,15.68
2022-10-18T02:06:23.030Z,16.38
2022-10-18T02:09:39.552Z,16.90
2022-10-18T02:12:44.470Z,15.63
2022-10-18T02:15:49.993Z,16.97
2022-10-18T02:18:58.930Z,16.20
2022-10-18T02:22:02.072Z,15.85
2022-10-18T02:25:10.271Z,15.50
2022-10-18T02:28:12.819Z,17.73
2022-10-18T02:31:27.360Z,16.77
2022-10-18T02:34:35.833Z,18.77
2022-10-18T02:37:40.074Z,17.77
2022-10-18T02:40:42.453Z,19.08
2022-10-18T02:43:44.885Z,17.50
2022-10-18T02:46:47.665Z,17.53
2022-10-18T02:49:50.020Z,23.60
2022-10-18T02:52:52.479Z,25.83
2022-10-18T02:55:54.840Z,28.02
2022-10-18T02:58:57.406Z,24.87
2022-10-18T03:01:59.721Z,22.30
2022-10-18T03:05:02.085Z,20.70
2022-10-18T03:08:04.782Z,21.50
2022-10-18T03:11:07.245Z,21.30
2022-10-18T03:14:09.621Z,18.93
2022-10-18T03:17:12.086Z,17.50
2022-10-18T03:20:14.605Z,15.98
2022-10-18T03:23:17.090Z,26.63
2022-10-18T03:26:21.495Z,19.38
2022-10-18T03:29:23.874Z,18.60
2022-10-18T03:32:26.458Z,18.00
2022-10-18T03:35:28.847Z,21.58
2022-10-18T03:38:31.618Z,30.80
2022-10-18T03:41:34.003Z,30.52
2022-10-18T03:44:36.382Z,25.20
2022-10-18T03:47:38.817Z,17.73
2022-10-18T03:50:42.875Z,25.67
2022-10-18T03:53:45.483Z,23.67
2022-10-18T03:56:48.127Z,22.55
2022-10-18T03:59:50.708Z,20.93
2022-10-18T04:02:55.826Z,20.97
2022-10-18T04:06:00.653Z,25.23
2022-10-18T04:09:06.510Z,20.08
2022-10-18T04:12:11.874Z,25.00
2022-10-18T04:15:14.377Z,24.53
2022-10-18T04:18:16.768Z,27.67
2022-10-18T04:21:19.313Z,20.88
2022-10-18T04:24:21.856Z,30.15
2022-10-18T04:27:25.545Z,18.50
2022-10-18T04:30:28.209Z,26.07
2022-10-18T04:33:30.596Z,19.02
2022-10-18T04:36:33.013Z,21.10
2022-10-18T04:39:35.474Z,25.83
2022-10-18T04:42:37.897Z,21.95
2022-10-18T04:45:40.212Z,27.50
2022-10-18T04:48:42.650Z,22.25
2022-10-18T04:51:45.143Z,20.88
2022-10-18T04:54:47.518Z,18.40
2022-10-18T04:57:49.929Z,25.47
2022-10-18T05:00:52.632Z,22.67
2022-10-18T05:03:55.200Z,31.63
2022-10-18T05:06:57.932Z,31.63
2022-10-18T05:10:03.922Z,26.85
2022-10-18T05:13:07.262Z,29.90
2022-10-18T05:16:17.852Z,34.53
2022-10-18T05:19:20.422Z,37.80
2022-10-18T05:22:22.975Z,33.75
2022-10-18T05:25:25.420Z,30.63
2022-10-18T05:28:39.707Z,25.53
2022-10-18T05:31:43.115Z,27.17
2022-10-18T05:34:45.583Z,27.48
2022-10-18T05:37:48.702Z,25.77
2022-10-18T05:40:53.248Z,26.83
2022-10-18T05:43:55.761Z,28.53
2022-10-18T05:46:58.494Z,37.30
2022-10-18T05:50:00.974Z,30.35
2022-10-18T05:53:12.167Z,27.88
2022-10-18T05:56:20.952Z,24.87
2022-10-18T05:59:23.495Z,30.50
2022-10-18T06:02:26.014Z,36.47
2022-10-18T06:05:28.492Z,34.83
2022-10-18T06:08:31.410Z,44.85
2022-10-18T06:11:34.031Z,46.43
2022-10-18T06:14:37.631Z,74.70
2022-10-18T06:17:40.073Z,108.55
2022-10-18T06:20:42.713Z,141.82
2022-10-18T06:23:52.266Z,113.38
2022-10-18T06:26:54.824Z,90.73
2022-10-18T06:29:57.488Z,79.73
2022-10-18T06:33:01.070Z,49.65
2022-10-18T06:36:06.118Z,36.38
2022-10-18T06:39:08.607Z,35.60
2022-10-18T06:42:11.036Z,34.27
2022-10-18T06:45:15.840Z,31.37
2022-10-18T06:51:27.217Z,26.30
2022-10-18T06:54:29.756Z,28.00
2022-10-18T06:57:32.120Z,29.70
2022-10-18T07:00:35.911Z,28.93
2022-10-18T07:03:38.530Z,30.20
2022-10-18T07:06:41.052Z,30.58
2022-10-18T07:09:46.027Z,27.23
2022-10-18T07:12:48.471Z,26.83
2022-10-18T07:16:05.992Z,27.27
2022-10-18T07:19:08.527Z,29.17
2022-10-18T07:22:11.030Z,29.00
2022-10-18T07:25:13.668Z,27.98
2022-10-18T07:28:16.129Z,30.97
2022-10-18T07:31:18.757Z,28.73
2022-10-18T07:34:21.258Z,26.60
2022-10-18T07:37:26.660Z,27.13
2022-10-18T07:40:31.891Z,27.15
2022-10-18T07:43:35.581Z,32.77
2022-10-18T07:46:37.969Z,29.83
2022-10-18T07:49:41.092Z,24.80
2022-10-18T07:52:43.553Z,26.40
2022-10-18T07:55:46.243Z,21.42
2022-10-18T07:58:53.691Z,22.70
2022-10-18T08:01:56.284Z,22.67
2022-10-18T08:04:58.938Z,29.80
2022-10-18T08:08:04.305Z,21.85
2022-10-18T08:11:24.469Z,23.73
2022-10-18T08:14:26.959Z,21.43
2022-10-18T08:17:29.419Z,20.13
2022-10-18T08:20:33.333Z,23.42
2022-10-18T08:23:36.944Z,20.23
2022-10-18T08:26:39.393Z,25.35
2022-10-18T08:29:42.034Z,21.30
2022-10-18T08:32:44.452Z,29.50
2022-10-18T08:36:01.288Z,40.40
2022-10-18T08:39:03.954Z,24.95
2022-10-18T08:42:27.986Z,19.80
2022-10-18T08:45:41.900Z,24.63
2022-10-18T08:48:52.169Z,21.97
2022-10-18T08:51:56.047Z,23.55
2022-10-18T08:55:29.311Z,26.60
2022-10-18T08:58:33.363Z,21.45
2022-10-18T09:01:41.954Z,20.17
2022-10-18T09:05:06.803Z,20.67
2022-10-18T09:08:30.541Z,19.08
2022-10-18T09:11:41.809Z,22.75
2022-10-18T09:15:02.581Z,25.05
2022-10-18T09:18:20.263Z,23.00
2022-10-18T09:21:51.845Z,17.83
2022-10-18T09:25:18.132Z,19.45
2022-10-18T09:28:46.282Z,20.48
2022-10-18T09:32:03.720Z,19.52
2022-10-18T09:35:14.914Z,17.63
2022-10-18T09:38:21.886Z,20.73
2022-10-18T09:41:24.306Z,20.15
2022-10-18T09:44:35.985Z,23.40
2022-10-18T09:47:45.448Z,19.42
2022-10-18T09:50:57.105Z,18.60
2022-10-18T09:54:12.986Z,22.97
2022-10-18T09:57:21.778Z,16.92
2022-10-18T10:00:38.785Z,15.20
2022-10-18T10:03:42.357Z,17.73
2022-10-18T10:06:52.913Z,22.47
2022-10-18T10:09:59.934Z,17.57
2022-10-18T10:13:17.836Z,19.75
2022-10-18T10:16:20.316Z,24.85
2022-10-18T10:19:53.657Z,22.27
2022-10-18T10:23:07.489Z,15.93
2022-10-18T10:26:22.773Z,23.47
2022-10-18T10:29:49.073Z,14.55
2022-10-18T10:32:53.093Z,14.75
2022-10-18T10:36:00.889Z,13.40
2022-10-18T10:39:12.515Z,15.13
2022-10-18T10:42:15.020Z,12.43
2022-10-18T10:45:17.728Z,10.85
2022-10-18T10:48:21.158Z,13.63
2022-10-18T10:51:38.738Z,16.00
2022-10-18T10:54:50.407Z,11.23
2022-10-18T10:57:56.368Z,10.97
2022-10-18T11:01:16.530Z,12.25
2022-10-18T11:04:25.673Z,13.27
2022-10-18T11:07:36.231Z,12.20
2022-10-18T11:11:23.293Z,13.00
2022-10-18T11:14:38.788Z,12.87
2022-10-18T11:18:10.814Z,16.17
2022-10-18T11:21:23.151Z,15.10
2022-10-18T11:24:25.839Z,15.15
2022-10-18T11:27:53.889Z,15.00
2022-10-18T11:31:17.123Z,16.10
2022-10-18T11:34:57.010Z,18.42
2022-10-18T11:38:18.090Z,12.52
2022-10-18T11:41:39.956Z,18.27
2022-10-18T11:44:57.767Z,13.40
2022-10-18T11:48:18.807Z,16.33
2022-10-18T11:52:03.260Z,14.77
2022-10-18T11:55:18.926Z,13.45
2022-10-18T11:58:50.758Z,12.98
2022-10-18T12:02:15.311Z,17.30
2022-10-18T12:05:23.743Z,17.00
2022-10-18T12:08:37.113Z,13.25
2022-10-18T12:11:58.539Z,16.77
2022-10-18T12:15:14.407Z,12.93
2022-10-18T12:18:20.343Z,13.53
2022-10-18T12:21:25.887Z,13.33
2022-10-18T12:24:31.931Z,14.75
2022-10-18T12:27:44.026Z,15.60
2022-10-18T12:31:18.851Z,17.17
2022-10-18T12:34:21.368Z,14.67
2022-10-18T12:37:36.134Z,17.20
2022-10-18T12:40:46.062Z,15.27
2022-10-18T12:43:54.786Z,17.35
2022-10-18T12:47:02.776Z,17.95
2022-10-18T12:50:23.045Z,16.60
2022-10-18T12:53:27.953Z,16.63
2022-10-18T12:56:32.874Z,14.20
2022-10-18T12:59:35.242Z,16.75
2022-10-18T13:02:37.908Z,19.05
2022-10-18T13:06:04.177Z,15.33
2022-10-18T13:09:21.005Z,14.93
2022-10-18T13:12:23.422Z,14.00
2022-10-18T13:15:35.449Z,14.65
2022-10-18T13:18:47.709Z,16.65
2022-10-18T13:21:59.589Z,18.10
2022-10-18T13:25:17.269Z,13.07
2022-10-18T13:28:19.683Z,18.02
2022-10-18T13:31:45.114Z,17.70
2022-10-18T13:34:47.742Z,11.52
2022-10-18T13:38:00.007Z,13.63
2022-10-18T13:41:08.732Z,12.77
2022-10-18T13:44:33.242Z,10.63
2022-10-18T13:47:38.077Z,11.85
2022-10-18T13:50:43.064Z,12.93
2022-10-18T13:54:11.196Z,12.23
2022-10-18T13:57:41.875Z,18.43
2022-10-18T14:00:50.507Z,17.08
2022-10-18T14:04:11.160Z,22.25
2022-10-18T14:07:19.165Z,12.93
2022-10-18T14:10:57.407Z,15.17
2022-10-18T14:14:13.515Z,19.17
2022-10-18T14:17:24.981Z,13.13
2022-10-18T14:20:49.517Z,14.60
2022-10-18T14:24:00.391Z,11.80
2022-10-18T14:27:13.212Z,12.37
2022-10-18T14:30:20.208Z,15.23
2022-10-18T14:33:43.713Z,11.00
2022-10-18T14:36:48.458Z,8.80
2022-10-18T14:39:51.069Z,13.10
2022-10-18T14:42:53.486Z,8.43
2022-10-18T14:46:09.410Z,8.97
2022-10-18T14:49:13.171Z,8.75
2022-10-18T14:52:18.529Z,10.43
2022-10-18T14:55:26.941Z,13.70
2022-10-18T14:58:30.217Z,10.03
2022-10-18T15:01:33.123Z,9.47
2022-10-18T15:04:35.696Z,9.98
2022-10-18T15:07:38.410Z,12.57
2022-10-18T15:10:41.654Z,9.07
2022-10-18T15:13:53.482Z,12.23
2022-10-18T15:17:03.447Z,11.30
2022-10-18T15:20:27.282Z,8.68
2022-10-18T15:23:31.331Z,11.05
2022-10-18T15:26:33.798Z,13.90
2022-10-18T15:29:37.752Z,11.57
2022-10-18T15:32:48.580Z,12.13
2022-10-18T15:35:53.065Z,11.77
2022-10-18T15:39:18.394Z,10.60
2022-10-18T15:42:38.798Z,10.73
2022-10-18T15:49:18.124Z,11.33
2022-10-18T15:52:39.310Z,11.05
2022-10-18T15:55:46.746Z,13.90
2022-10-18T15:58:51.281Z,17.65
2022-10-18T16:01:54.337Z,13.70
2022-10-18T16:05:01.805Z,13.13
2022-10-18T16:08:04.356Z,13.55
2022-10-18T16:11:08.204Z,11.95
2022-10-18T16:14:10.827Z,10.32
2022-10-18T16:17:16.921Z,13.17
2022-10-18T16:20:22.278Z,13.67
2022-10-18T16:23:28.700Z,14.82
2022-10-18T16:26:32.069Z,27.48
2022-10-18T16:29:35.088Z,36.58
2022-10-18T16:32:37.486Z,33.80
2022-10-18T16:35:39.853Z,46.87
2022-10-18T16:38:42.980Z,40.83
2022-10-18T16:41:46.516Z,49.30
2022-10-18T16:44:49.116Z,55.35
2022-10-18T16:47:51.543Z,39.20
2022-10-18T16:50:55.946Z,39.50
2022-10-18T16:53:58.349Z,37.80
2022-10-18T16:57:00.717Z,37.20
2022-10-18T17:00:04.268Z,32.50
2022-10-18T17:03:09.495Z,32.47
2022-10-18T17:06:21.026Z,28.33
2022-10-18T17:09:23.351Z,27.25
2022-10-18T17:12:25.816Z,26.30
2022-10-18T17:15:31.573Z,25.10
2022-10-18T17:18:37.214Z,25.37
2022-10-18T17:21:39.790Z,24.90
2022-10-18T17:24:42.157Z,28.45
2022-10-18T17:27:45.599Z,30.85
2022-10-18T17:30:54.446Z,30.30
2022-10-18T17:33:58.628Z,32.70
2022-10-18T17:37:01.180Z,25.87
2022-10-18T17:40:06.743Z,29.02
2022-10-18T17:43:10.325Z,28.40
2022-10-18T17:46:14.221Z,32.65
2022-10-18T17:49:16.980Z,42.97
2022-10-18T17:52:19.351Z,44.33
2022-10-18T17:55:21.741Z,37.28
2022-10-18T17:58:24.227Z,48.03
2022-10-18T18:01:26.823Z,43.83
2022-10-18T18:04:29.396Z,34.90
2022-10-18T18:07:31.880Z,27.93
2022-10-18T18:10:35.361Z,27.02
2022-10-18T18:13:37.910Z,26.17
2022-10-18T18:16:43.134Z,31.85
2022-10-18T18:19:45.631Z,29.53
2022-10-18T18:22:48.048Z,31.20
2022-10-18T18:25:57.490Z,32.83
2022-10-18T18:32:03.652Z,35.55
2022-10-18T18:35:06.407Z,44.80
2022-10-18T18:38:09.161Z,30.87
2022-10-18T18:41:17.580Z,33.15
2022-10-18T18:44:22.469Z,36.03
2022-10-18T18:47:24.832Z,40.92
2022-10-18T18:50:28.249Z,42.77
2022-10-18T18:53:31.180Z,39.83
2022-10-18T18:56:34.104Z,40.00
2022-10-18T18:59:36.753Z,37.33
2022-10-18T19:02:39.172Z,29.77
2022-10-18T19:05:41.575Z,43.67
2022-10-18T19:08:45.022Z,67.03
2022-10-18T19:11:49.752Z,46.95
2022-10-18T19:14:52.072Z,54.35
2022-10-18T19:17:56.246Z,48.13
2022-10-18T19:20:58.643Z,49.73
2022-10-18T19:24:01.882Z,50.20
2022-10-18T19:27:12.299Z,47.53
2022-10-18T19:30:14.874Z,46.03
2022-10-18T19:33:35.510Z,51.45
2022-10-18T19:36:47.161Z,48.30
2022-10-18T19:39:49.736Z,51.20
2022-10-18T19:42:52.227Z,57.55
2022-10-18T19:45:54.703Z,51.20
2022-10-18T19:48:57.351Z,53.72
2022-10-18T19:51:59.828Z,53.37
2022-10-18T19:55:02.170Z,57.60
2022-10-18T19:58:04.623Z,56.40
2022-10-18T20:01:07.090Z,65.75
2022-10-18T20:04:10.555Z,62.13
2022-10-18T20:07:12.951Z,74.83
2022-10-18T20:10:17.011Z,68.43
2022-10-18T20:13:19.884Z,59.03
2022-10-18T20:16:28.088Z,62.88
2022-10-18T20:19:31.552Z,71.97
2022-10-18T20:22:34.249Z,60.13
2022-10-18T20:25:36.814Z,63.10
2022-10-18T20:28:39.941Z,59.50
2022-10-18T20:31:42.372Z,48.33
2022-10-18T20:34:44.725Z,45.05
2022-10-18T20:37:47.420Z,42.20
2022-10-18T20:40:52.285Z,40.63
2022-10-18T20:43:57.072Z,38.92
2022-10-18T20:46:59.561Z,40.63
2022-10-18T20:50:01.953Z,38.75
2022-10-18T20:53:04.263Z,42.53
2022-10-18T20:56:09.688Z,40.73
2022-10-18T20:59:12.252Z,35.88
2022-10-18T21:02:14.631Z,39.20
2022-10-18T21:05:18.335Z,36.13
2022-10-18T21:08:20.708Z,36.10
2022-10-18T21:11:24.017Z,33.90
2022-10-18T21:14:29.150Z,30.25
2022-10-18T21:17:31.619Z,32.22
2022-10-18T21:20:41.440Z,32.90
2022-10-18T21:23:44.618Z,21.47
2022-10-18T21:26:47.936Z,20.90
2022-10-18T21:29:50.277Z,23.70
2022-10-18T21:32:52.715Z,18.90
2022-10-18T21:35:55.039Z,22.60
2022-10-18T21:38:57.588Z,24.43
2022-10-18T21:41:59.931Z,29.47
2022-10-18T21:45:02.269Z,27.60
2022-10-18T21:48:04.828Z,31.63
2022-10-18T21:51:08.536Z,25.48
2022-10-18T21:54:13.635Z,24.77
2022-10-18T21:57:15.990Z,25.07
2022-10-18T22:00:19.327Z,26.45
2022-10-18T22:03:23.297Z,22.90
2022-10-18T22:06:29.176Z,24.55
2022-10-18T22:09:31.802Z,22.47
2022-10-18T22:12:34.235Z,22.37
2022-10-18T22:18:46.042Z,20.45
2022-10-18T22:21:48.633Z,18.75
2022-10-18T22:24:50.946Z,19.80
2022-10-18T22:27:53.297Z,28.60
2022-10-18T22:30:55.602Z,17.92
2022-10-18T22:34:00.565Z,18.58
2022-10-18T22:37:02.997Z,19.60
2022-10-18T22:40:05.939Z,17.40
2022-10-18T22:43:08.341Z,18.73
2022-10-18T22:46:12.658Z,17.80
2022-10-18T22:49:15.216Z,20.45
2022-10-18T22:52:17.554Z,18.00
2022-10-18T22:55:20.004Z,26.50
2022-10-18T22:58:22.778Z,17.13
2022-10-18T23:01:25.426Z,19.15
2022-10-18T23:04:27.872Z,19.27
2022-10-18T23:07:30.257Z,17.98
2022-10-18T23:10:38.418Z,17.20
2022-10-18T23:13:40.794Z,17.87
2022-10-18T23:16:43.330Z,18.88
2022-10-18T23:19:46.387Z,19.27
2022-10-18T23:22:48.841Z,23.08
2022-10-18T23:25:54.186Z,23.97
2022-10-18T23:28:57.316Z,21.33
2022-10-18T23:31:59.847Z,20.73
2022-10-18T23:35:02.188Z,23.77
2022-10-18T23:38:04.543Z,21.58
2022-10-18T23:41:10.262Z,23.93
2022-10-18T23:44:12.723Z,21.60
2022-10-18T23:47:15.714Z,20.30
2022-10-18T23:50:20.536Z,17.67
2022-10-18T23:53:23.378Z,21.83
2022-10-18T23:56:25.842Z,18.63
2022-10-18T23:59:28.246Z,16.87
